Time;durP1;ratioP1;P1;durP2;ratioP2;P2;SDS_P1;SDS_P2;PMS_P1;PMS_P2;Temp;Humidity;BMP_temperature;BMP_pressure;BME280_temperature;BME280_humidity;BME280_pressure;Samples;Min_cycle;Max_cycle;Signal;HPM_P1;HPM_P2
2022/10/13 00:00:35;;;;;;;5.17;3.53;;;;;;;3.49;100.00;101460.91;5040009;28;20668;-75
2022/10/13 00:03:02;;;;;;;4.60;3.00;;;;;;;3.59;100.00;101461.94;5060788;28;20222;-75
2022/10/13 00:05:30;;;;;;;9.77;3.80;;;;;;;3.66;100.00;101460.31;5062659;28;20190;-73
2022/10/13 00:07:57;;;;;;;4.53;2.97;;;;;;;3.60;100.00;101454.19;5067302;28;20563;-75
2022/10/13 00:10:24;;;;;;;6.83;3.20;;;;;;;3.60;100.00;101458.50;5067542;28;20208;-74
2022/10/13 00:12:51;;;;;;;7.87;3.67;;;;;;;3.52;100.00;101452.38;5069185;28;20229;-75
2022/10/13 00:15:21;;;;;;;4.60;3.10;;;;;;;3.42;100.00;101449.63;5066567;28;20446;-75
2022/10/13 00:17:48;;;;;;;5.80;3.33;;;;;;;3.40;100.00;101447.88;5063222;28;20225;-74
2022/10/13 00:20:15;;;;;;;6.10;2.90;;;;;;;3.44;100.00;101456.53;5069594;28;20248;-75
2022/10/13 00:22:42;;;;;;;8.77;3.57;;;;;;;3.42;100.00;101449.63;5069451;28;20226;-75
2022/10/13 00:25:09;;;;;;;5.00;3.03;;;;;;;3.42;100.00;101448.78;5070325;28;20202;-74
2022/10/13 00:27:35;;;;;;;6.97;2.70;;;;;;;3.35;100.00;101444.34;5070984;28;20210;-75
2022/10/13 00:30:03;;;;;;;6.07;3.40;;;;;;;3.41;100.00;101440.19;5069455;28;20203;-74
2022/10/13 00:32:29;;;;;;;5.10;3.40;;;;;;;3.32;100.00;101436.56;5068603;28;20218;-75
2022/10/13 00:34:57;;;;;;;7.03;3.87;;;;;;;3.26;100.00;101449.38;5070118;28;20197;-75
2022/10/13 00:37:25;;;;;;;11.70;3.40;;;;;;;3.34;100.00;101445.19;5069641;28;20607;-75
2022/10/13 00:39:52;;;;;;;5.77;3.37;;;;;;;3.31;100.00;101447.75;5070256;28;20196;-75
2022/10/13 00:42:22;;;;;;;5.60;3.27;;;;;;;3.30;100.00;101453.72;5068918;28;20271;-75
2022/10/13 00:45:00;;;;;;;9.63;2.90;;;;;;;3.20;100.00;101439.78;5056507;28;20222;-75
2022/10/13 00:47:30;;;;;;;7.73;4.03;;;;;;;3.07;100.00;101435.28;5067048;28;20203;-73
2022/10/13 00:49:57;;;;;;;5.00;3.57;;;;;;;3.00;100.00;101432.59;5052228;28;20445;-74
2022/10/13 00:52:26;;;;;;;5.13;3.47;;;;;;;3.05;100.00;101442.13;5069994;28;20214;-74
2022/10/13 00:54:55;;;;;;;7.23;3.83;;;;;;;3.14;100.00;101439.69;5062354;28;20225;-73
2022/10/13 00:57:22;;;;;;;5.93;3.90;;;;;;;3.28;100.00;101437.38;5069825;28;20655;-74
2022/10/13 00:59:49;;;;;;;5.60;3.03;;;;;;;3.20;100.00;101439.78;5057670;28;20199;-74
2022/10/13 01:02:16;;;;;;;7.10;4.10;;;;;;;3.12;100.00;101434.53;5065551;28;20207;-74
2022/10/13 01:04:45;;;;;;;4.17;3.70;;;;;;;3.06;100.00;101431.84;5067263;28;20210;-74
2022/10/13 01:07:14;;;;;;;7.93;3.80;;;;;;;3.13;100.00;101430.22;5071869;28;20196;-75
2022/10/13 01:09:42;;;;;;;6.67;3.80;;;;;;;3.14;100.00;101431.97;5070130;28;20244;-74
2022/10/13 01:12:20;;;;;;;8.43;4.30;;;;;;;3.13;100.00;101427.66;5069949;28;20227;-74
2022/10/13 01:14:52;;;;;;;8.37;3.80;;;;;;;3.03;100.00;101421.47;5065619;28;20429;-74
2022/10/13 01:17:27;;;;;;;9.90;3.60;;;;;;;3.13;100.00;101428.53;5052003;28;20214;-74
2022/10/13 01:20:27;;;;;;;5.70;3.80;;;;;;;3.11;100.00;101421.59;5070429;28;20274;-74
2022/10/13 01:23:06;;;;;;;5.90;3.33;;;;;;;3.13;100.00;101425.06;5072852;28;20226;-72
2022/10/13 01:25:52;;;;;;;6.53;3.73;;;;;;;3.06;100.00;101418.06;5076021;28;20194;-72
2022/10/13 01:28:35;;;;;;;5.83;3.10;;;;;;;2.99;100.00;101417.09;5062306;28;20210;-74
2022/10/13 01:31:12;;;;;;;5.57;3.57;;;;;;;3.06;100.00;101420.66;5073409;28;20208;-74
2022/10/13 01:33:45;;;;;;;6.80;3.90;;;;;;;3.03;100.00;101414.59;5076160;28;20575;-72
2022/10/13 01:36:19;;;;;;;8.93;4.20;;;;;;;3.11;100.00;101413.88;5078849;28;20202;-71
2022/10/13 01:38:53;;;;;;;7.43;4.00;;;;;;;3.16;100.00;101414.81;5082086;28;20201;-75
2022/10/13 01:41:29;;;;;;;6.07;3.43;;;;;;;3.11;100.00;101416.44;5055878;28;20651;-74
2022/10/13 01:44:03;;;;;;;7.10;4.17;;;;;;;3.10;100.00;101409.56;5071206;28;20218;-75
2022/10/13 01:46:34;;;;;;;6.83;3.70;;;;;;;3.12;100.00;101403.59;5063052;28;20194;-75
2022/10/13 01:49:05;;;;;;;7.77;3.80;;;;;;;2.97;100.00;101408.47;5074630;28;20199;-75
2022/10/13 01:51:33;;;;;;;8.87;4.10;;;;;;;2.94;100.00;101417.03;5051797;28;20227;-74
2022/10/13 01:54:00;;;;;;;7.97;4.53;;;;;;;3.07;100.00;101397.50;5074705;28;20563;-75
2022/10/13 01:56:26;;;;;;;6.50;4.37;;;;;;;3.14;100.00;101398.47;5075240;28;20195;-76
2022/10/13 01:58:56;;;;;;;5.93;4.33;;;;;;;3.21;100.00;101396.00;5073416;28;20198;-73
2022/10/13 02:01:38;;;;;;;5.73;4.10;;;;;;;3.18;100.00;101402.81;5052316;28;20226;-75
2022/10/13 02:04:14;;;;;;;8.43;4.63;;;;;;;3.22;100.00;101399.47;5068624;28;20214;-75
2022/10/13 02:06:45;;;;;;;9.07;4.67;;;;;;;3.33;100.00;101397.94;5071673;28;20186;-73
2022/10/13 02:09:18;;;;;;;9.93;4.67;;;;;;;3.33;100.00;101392.78;5057819;28;20218;-74
2022/10/13 02:11:51;;;;;;;6.70;4.13;;;;;;;3.29;100.00;101390.09;5051938;28;20702;-74
2022/10/13 02:14:22;;;;;;;6.23;3.70;;;;;;;3.28;100.00;101389.25;5053869;28;20213;-73
2022/10/13 02:16:53;;;;;;;7.50;4.30;;;;;;;3.29;100.00;101388.41;5054259;28;20202;-74
2022/10/13 02:19:20;;;;;;;6.77;4.40;;;;;;;3.22;100.00;101389.16;5057228;28;20295;-75
2022/10/13 02:21:48;;;;;;;9.90;4.23;;;;;;;3.30;100.00;101386.69;5088142;28;20222;-74
2022/10/13 02:24:18;;;;;;;4.53;3.97;;;;;;;3.21;100.00;101388.28;5074254;28;20217;-73
2022/10/13 02:26:48;;;;;;;6.03;4.00;;;;;;;3.21;100.00;101388.28;5055126;28;20609;-73
2022/10/13 02:29:20;;;;;;;9.20;4.63;;;;;;;3.20;100.00;101391.72;5053091;28;20655;-73
2022/10/13 02:31:52;;;;;;;7.03;4.57;;;;;;;3.16;100.00;101382.19;5055185;28;20220;-73
2022/10/13 02:34:20;;;;;;;6.77;3.60;;;;;;;3.25;100.00;101383.19;5079214;28;20248;-73
2022/10/13 02:36:49;;;;;;;9.03;4.77;;;;;;;3.27;100.00;101384.94;5053127;28;20659;-73
2022/10/13 02:39:19;;;;;;;5.80;3.80;;;;;;;3.23;100.00;101386.59;5055014;28;20199;-72
2022/10/13 02:41:47;;;;;;;6.80;4.37;;;;;;;3.23;100.00;101381.44;5051922;28;20219;-73
2022/10/13 02:44:16;;;;;;;5.27;3.80;;;;;;;3.23;100.00;101388.31;5068674;28;20306;-72
2022/10/13 02:46:44;;;;;;;5.60;3.70;;;;;;;3.14;100.00;101386.44;5053595;28;20622;-73
2022/10/13 02:49:14;;;;;;;4.87;3.43;;;;;;;3.17;100.00;101383.06;5053144;28;20233;-73
2022/10/13 02:51:43;;;;;;;6.47;4.00;;;;;;;3.14;100.00;101377.84;5065463;28;20529;-72
2022/10/13 02:54:12;;;;;;;4.97;3.43;;;;;;;3.09;100.00;101382.06;5053165;28;20201;-72
2022/10/13 02:56:41;;;;;;;5.63;3.90;;;;;;;3.09;100.00;101382.91;5053716;28;20205;-74
2022/10/13 02:59:09;;;;;;;6.37;3.97;;;;;;;3.04;100.00;101376.81;5049320;28;20210;-73
2022/10/13 03:01:40;;;;;;;8.47;4.23;;;;;;;3.09;100.00;101372.63;5049604;28;20198;-73
2022/10/13 03:04:09;;;;;;;7.13;3.73;;;;;;;3.03;100.00;101375.97;5068285;28;20891;-73
2022/10/13 03:06:39;;;;;;;9.90;4.30;;;;;;;3.10;100.00;101370.94;5053042;28;20199;-72
2022/10/13 03:09:08;;;;;;;7.43;3.43;;;;;;;3.05;100.00;101368.25;5052106;28;20228;-72
2022/10/13 03:11:37;;;;;;;6.43;4.23;;;;;;;2.93;100.00;101365.47;5048552;28;20665;-72
2022/10/13 03:14:06;;;;;;;4.97;3.70;;;;;;;3.03;100.00;101380.25;5049445;28;20207;-72
2022/10/13 03:16:35;;;;;;;5.83;3.23;;;;;;;2.97;100.00;101372.41;5071050;28;20222;-72
2022/10/13 03:19:08;;;;;;;5.13;3.50;;;;;;;2.96;100.00;101365.53;5051717;28;20208;-72
2022/10/13 03:21:39;;;;;;;8.20;4.10;;;;;;;2.94;100.00;101369.81;5055013;28;20221;-72
2022/10/13 03:24:08;;;;;;;6.77;4.03;;;;;;;3.01;100.00;101363.91;5051898;28;20253;-73
2022/10/13 03:26:37;;;;;;;5.27;3.27;;;;;;;3.05;100.00;101365.69;5052541;28;20232;-72
2022/10/13 03:29:06;;;;;;;6.30;3.93;;;;;;;2.96;100.00;101365.53;5051052;28;20198;-74
2022/10/13 03:31:35;;;;;;;6.63;3.67;;;;;;;3.04;100.00;101358.78;5051532;28;20199;-70
2022/10/13 03:34:03;;;;;;;5.83;3.87;;;;;;;3.09;100.00;101361.44;5055568;28;20668;-73
2022/10/13 03:36:32;;;;;;;9.13;4.07;;;;;;;3.05;100.00;101352.81;5047542;28;20191;-73
2022/10/13 03:39:04;;;;;;;8.63;3.87;;;;;;;3.11;100.00;101355.47;5051775;28;20195;-74
2022/10/13 03:41:32;;;;;;;8.23;3.80;;;;;;;3.18;100.00;101352.16;5057043;28;20247;-74
2022/10/13 03:44:01;;;;;;;6.60;4.23;;;;;;;3.14;100.00;101345.22;5049194;28;20191;-74
2022/10/13 03:46:31;;;;;;;8.37;4.40;;;;;;;3.10;100.00;101343.44;5050981;28;20750;-73
2022/10/13 03:49:00;;;;;;;7.40;4.50;;;;;;;3.12;100.00;101339.16;5051623;28;20234;-73
2022/10/13 03:51:31;;;;;;;6.67;4.23;;;;;;;3.13;100.00;101342.59;5069461;28;20187;-74
2022/10/13 03:53:58;;;;;;;6.90;3.80;;;;;;;3.14;100.00;101339.19;5046316;28;20199;-74
2022/10/13 03:56:27;;;;;;;6.63;4.57;;;;;;;3.18;100.00;101344.44;5069484;28;20206;-73
2022/10/13 03:58:56;;;;;;;10.00;4.20;;;;;;;3.25;100.00;101341.94;5068539;28;20733;-74
2022/10/13 04:01:24;;;;;;;12.60;4.73;;;;;;;3.31;100.00;101344.63;5052238;28;20191;-73
2022/10/13 04:03:52;;;;;;;8.60;4.80;;;;;;;3.27;100.00;101341.09;5068646;28;20198;-74
2022/10/13 04:06:19;;;;;;;8.87;4.77;;;;;;;3.41;100.00;101336.16;5069246;28;20194;-74
2022/10/13 04:08:46;;;;;;;7.70;4.90;;;;;;;3.21;100.00;101336.72;5065668;28;20199;-73
2022/10/13 04:11:15;;;;;;;8.60;4.83;;;;;;;3.19;100.00;101322.09;5064462;28;20214;-74
2022/10/13 04:13:46;;;;;;;8.20;4.33;;;;;;;3.21;100.00;101330.72;5069714;28;20217;-75
2022/10/13 04:16:14;;;;;;;8.47;4.47;;;;;;;3.29;100.00;101334.28;5067343;28;20194;-74
2022/10/13 04:18:44;;;;;;;8.17;4.43;;;;;;;3.29;100.00;101329.13;5052013;28;20223;-73
2022/10/13 04:21:13;;;;;;;7.60;4.13;;;;;;;3.22;100.00;101328.16;5069782;28;20191;-73
2022/10/13 04:23:40;;;;;;;7.70;4.97;;;;;;;3.15;100.00;101326.34;5065982;28;20245;-73
2022/10/13 04:26:06;;;;;;;8.57;5.27;;;;;;;3.20;100.00;101327.28;5067145;28;20219;-73
2022/10/13 04:28:34;;;;;;;9.50;4.73;;;;;;;3.32;100.00;101325.72;5067859;28;20199;-74
2022/10/13 04:31:03;;;;;;;7.73;4.87;;;;;;;3.22;100.00;101335.91;5067396;28;20229;-74
2022/10/13 04:33:32;;;;;;;6.97;4.70;;;;;;;3.17;100.00;101327.22;5049004;28;20221;-73
2022/10/13 04:36:04;;;;;;;9.00;4.37;;;;;;;3.04;100.00;101314.97;5066765;28;20195;-73
2022/10/13 04:38:31;;;;;;;9.73;5.00;;;;;;;3.03;100.00;101315.84;5065488;28;20304;-74
2022/10/13 04:40:58;;;;;;;8.63;4.43;;;;;;;3.02;100.00;101316.69;5049122;28;20290;-71
2022/10/13 04:43:28;;;;;;;11.87;4.70;;;;;;;3.03;100.00;101318.41;5045131;28;20217;-73
2022/10/13 04:46:05;;;;;;;9.37;5.03;;;;;;;3.09;100.00;101315.06;5046096;28;20252;-73
2022/10/13 04:48:32;;;;;;;10.10;5.40;;;;;;;2.91;100.00;101303.63;5069579;28;20606;-74
2022/10/13 04:51:01;;;;;;;10.10;5.73;;;;;;;2.99;100.00;101314.94;5067547;28;20630;-73
2022/10/13 04:53:28;;;;;;;8.43;4.93;;;;;;;3.02;100.00;101312.38;5052907;28;20702;-74
2022/10/13 04:55:55;;;;;;;9.33;5.10;;;;;;;3.01;100.00;101314.97;5063303;28;20231;-72
2022/10/13 04:58:22;;;;;;;10.57;4.63;;;;;;;2.97;100.00;101308.00;5069239;28;20240;-74
2022/10/13 05:00:48;;;;;;;6.83;3.93;;;;;;;2.97;100.00;101305.44;5065616;28;20202;-75
2022/10/13 05:03:16;;;;;;;7.53;5.03;;;;;;;2.94;100.00;101306.25;5065521;28;20257;-73
2022/10/13 05:05:42;;;;;;;7.33;4.57;;;;;;;2.98;100.00;101312.31;5065883;28;20237;-75
2022/10/13 05:08:09;;;;;;;16.13;5.03;;;;;;;2.98;100.00;101309.75;5065734;28;20202;-74
2022/10/13 05:10:35;;;;;;;6.50;4.30;;;;;;;2.94;100.00;101308.84;5066201;28;20198;-73
2022/10/13 05:13:02;;;;;;;8.20;4.47;;;;;;;3.02;100.00;101307.22;5070686;28;20222;-75
2022/10/13 05:15:29;;;;;;;9.67;5.10;;;;;;;2.98;100.00;101297.72;5044241;28;20634;-73
2022/10/13 05:17:56;;;;;;;12.77;6.07;;;;;;;2.92;100.00;101309.63;5060842;28;20444;-74
2022/10/13 05:20:23;;;;;;;12.40;6.77;;;;;;;2.96;100.00;101303.72;5052822;28;20293;-74
2022/10/13 05:22:50;;;;;;;8.80;5.73;;;;;;;3.02;100.00;101304.66;5068843;28;20249;-73
2022/10/13 05:25:17;;;;;;;9.83;5.33;;;;;;;2.99;100.00;101304.63;5066803;28;20578;-74
2022/10/13 05:27:45;;;;;;;16.23;6.37;;;;;;;2.79;100.00;101306.84;5068151;28;20190;-73
2022/10/13 05:30:12;;;;;;;16.03;7.70;;;;;;;2.88;100.00;101301.00;5050450;28;20567;-74
2022/10/13 05:32:38;;;;;;;13.90;7.83;;;;;;;2.81;100.00;101304.31;5065513;28;20297;-75
2022/10/13 05:35:05;;;;;;;12.27;6.57;;;;;;;2.88;100.00;101294.97;5042825;28;20668;-73
2022/10/13 05:37:33;;;;;;;18.70;9.43;;;;;;;2.84;100.00;101294.94;5060550;28;20200;-73
2022/10/13 05:39:59;;;;;;;19.97;8.23;;;;;;;2.95;100.00;101291.66;5050606;28;20214;-73
2022/10/13 05:42:28;;;;;;;23.87;10.50;;;;;;;3.08;100.00;101290.13;5059855;28;20222;-74
2022/10/13 05:44:55;;;;;;;21.40;9.30;;;;;;;3.19;100.00;101288.59;5054464;28;20223;-73
2022/10/13 05:47:25;;;;;;;21.73;10.20;;;;;;;3.31;100.00;101290.50;5068952;28;20213;-74
2022/10/13 05:49:54;;;;;;;20.07;10.57;;;;;;;3.26;100.00;101293.00;5068662;28;20599;-73
2022/10/13 05:52:23;;;;;;;18.37;8.23;;;;;;;3.35;100.00;101284.53;5068601;28;20222;-74
2022/10/13 05:54:56;;;;;;;18.37;9.03;;;;;;;3.46;100.00;101282.09;5068231;28;20550;-74
2022/10/13 05:57:27;;;;;;;17.37;9.53;;;;;;;3.57;100.00;101277.94;5068430;28;20736;-73
2022/10/13 06:00:00;;;;;;;15.37;7.43;;;;;;;3.70;100.00;101278.97;5065529;28;20684;-73
2022/10/13 06:02:42;;;;;;;16.50;7.13;;;;;;;3.80;100.00;101286.00;5065304;28;20230;-74
2022/10/13 06:05:14;;;;;;;12.10;7.30;;;;;;;3.94;100.00;101281.84;5049750;28;20227;-73
2022/10/13 06:07:42;;;;;;;13.30;6.90;;;;;;;4.06;100.00;101278.53;5067981;28;20207;-74
2022/10/13 06:10:10;;;;;;;10.57;6.33;;;;;;;4.18;100.00;101281.25;5067616;28;20614;-74
2022/10/13 06:12:38;;;;;;;15.67;6.23;;;;;;;4.28;100.00;101283.94;5067168;28;20211;-75
2022/10/13 06:15:05;;;;;;;15.70;7.00;;;;;;;4.39;100.00;101289.22;5067627;28;20229;-74
2022/10/13 06:17:32;;;;;;;12.20;7.23;;;;;;;4.52;100.00;101297.09;5063452;28;20203;-74
2022/10/13 06:19:58;;;;;;;17.93;8.03;;;;;;;4.63;100.00;101299.78;5061056;28;20583;-74
2022/10/13 06:22:25;;;;;;;16.63;9.07;;;;;;;4.74;100.00;101299.88;5059888;28;20295;-74
2022/10/13 06:24:51;;;;;;;16.57;9.80;;;;;;;4.87;100.00;101295.66;5070679;28;20199;-71
2022/10/13 06:27:19;;;;;;;17.47;9.63;;;;;;;5.01;100.00;101301.78;5071333;28;20193;-74
2022/10/13 06:29:47;;;;;;;26.17;11.50;;;;;;;5.21;100.00;101295.94;5070248;28;20190;-74
2022/10/13 06:32:13;;;;;;;19.43;10.97;;;;;;;5.38;100.00;101293.44;5069727;28;20222;-75
2022/10/13 06:34:40;;;;;;;19.50;10.50;;;;;;;5.57;100.00;101297.00;5070639;28;20199;-72
2022/10/13 06:37:06;;;;;;;17.97;9.40;;;;;;;5.76;100.00;101301.41;5070357;28;20555;-73
2022/10/13 06:39:33;;;;;;;14.77;9.90;;;;;;;5.95;100.00;101302.34;5070379;28;20605;-73
2022/10/13 06:42:03;;;;;;;19.30;10.40;;;;;;;6.19;100.00;101301.59;5052055;28;20691;-73
2022/10/13 06:44:32;;;;;;;18.87;9.40;;;;;;;6.31;100.00;101295.56;5070835;28;20214;-73
2022/10/13 06:47:01;;;;;;;19.17;10.03;;;;;;;6.49;100.00;101293.88;5069758;28;20218;-73
2022/10/13 06:49:28;;;;;;;14.77;9.70;;;;;;;6.63;100.00;101295.63;5070172;28;20197;-73
2022/10/13 06:51:55;;;;;;;14.30;9.23;;;;;;;6.77;100.00;101289.56;5048943;28;20221;-73
2022/10/13 06:54:21;;;;;;;16.30;9.93;;;;;;;6.89;100.00;101288.72;5069852;28;20203;-73
2022/10/13 06:56:47;;;;;;;18.20;9.97;;;;;;;6.97;100.00;101289.59;5051650;28;20215;-74
2022/10/13 06:59:14;;;;;;;20.20;9.93;;;;;;;7.08;100.00;101295.63;5066362;28;20211;-73
2022/10/13 07:01:44;;;;;;;21.83;10.07;;;;;;;7.18;100.00;101288.69;5062774;28;20212;-73
2022/10/13 07:04:12;;;;;;;17.10;10.00;;;;;;;7.27;100.00;101286.09;5069385;28;20682;-74
2022/10/13 07:06:38;;;;;;;16.97;10.83;;;;;;;7.37;100.00;101286.94;5068808;28;20223;-73
2022/10/13 07:09:05;;;;;;;18.33;11.13;;;;;;;7.46;100.00;101288.63;5048198;28;20681;-73
2022/10/13 07:11:32;;;;;;;18.43;10.23;;;;;;;7.54;100.00;101292.91;5064013;28;20205;-73
2022/10/13 07:13:59;;;;;;;14.70;10.13;;;;;;;7.63;100.00;101297.22;5073234;28;20206;-73
2022/10/13 07:16:25;;;;;;;17.30;10.53;;;;;;;7.70;100.00;101291.13;5063998;28;20631;-73
2022/10/13 07:18:53;;;;;;;15.73;10.27;;;;;;;7.77;100.00;101297.16;5068727;28;20709;-72
2022/10/13 07:21:20;;;;;;;22.17;10.07;;;;;;;7.82;100.00;101294.56;5062742;28;20194;-72
2022/10/13 07:23:47;;;;;;;19.40;10.57;;;;;;;7.87;100.00;101290.22;5062761;28;20231;-74
2022/10/13 07:26:15;;;;;;;17.17;10.60;;;;;;;7.90;100.00;101285.03;5050156;28;20226;-74
2022/10/13 07:28:42;;;;;;;19.93;10.40;;;;;;;7.94;100.00;101290.19;5065463;28;20221;-74
2022/10/13 07:31:10;;;;;;;17.27;10.43;;;;;;;7.97;100.00;101284.13;5050746;28;20204;-75
2022/10/13 07:33:37;;;;;;;21.30;10.57;;;;;;;7.99;100.00;101277.19;5066619;28;20224;-75
2022/10/13 07:36:06;;;;;;;20.40;10.53;;;;;;;8.01;100.00;101285.81;5049877;28;20575;-74
2022/10/13 07:38:32;;;;;;;25.07;11.10;;;;;;;8.03;100.00;101291.00;5060415;28;20746;-74
2022/10/13 07:41:00;;;;;;;21.73;9.83;;;;;;;8.06;100.00;101291.00;5050212;28;20560;-74
2022/10/13 07:43:27;;;;;;;15.30;9.40;;;;;;;8.09;100.00;101285.78;5061466;28;20295;-74
2022/10/13 07:45:54;;;;;;;13.97;9.00;;;;;;;8.18;100.00;101280.56;5065913;28;20207;-74
2022/10/13 07:48:21;;;;;;;17.50;9.83;;;;;;;8.31;100.00;101287.38;5064421;28;20289;-75
2022/10/13 07:50:48;;;;;;;16.00;9.00;;;;;;;8.42;100.00;101276.94;5065783;28;20461;-74
2022/10/13 07:53:15;;;;;;;25.23;12.73;;;;;;;8.52;100.00;101280.34;5067816;28;20215;-74
2022/10/13 07:55:42;;;;;;;24.20;12.10;;;;;;;8.61;100.00;101272.47;5062843;28;20671;-75
2022/10/13 07:58:09;;;;;;;16.30;10.37;;;;;;;8.68;100.00;101271.56;5068232;28;20198;-73
2022/10/13 08:00:36;;;;;;;13.73;8.97;;;;;;;8.74;100.00;101269.78;5065651;28;20202;-74
2022/10/13 08:03:02;;;;;;;17.97;8.97;;;;;;;8.79;100.00;101270.63;5066447;28;20226;-75
2022/10/13 08:05:29;;;;;;;15.03;8.70;;;;;;;8.83;100.00;101262.78;5049012;28;20226;-73
2022/10/13 08:07:55;;;;;;;16.03;8.70;;;;;;;8.95;100.00;101256.59;5067197;28;20543;-73
2022/10/13 08:10:23;;;;;;;14.93;8.90;;;;;;;9.10;100.00;101251.25;5062298;28;20209;-74
2022/10/13 08:12:50;;;;;;;13.70;9.07;;;;;;;9.24;100.00;101256.31;5064447;28;20230;-73
2022/10/13 08:15:16;;;;;;;18.70;9.87;;;;;;;9.39;100.00;101265.72;5049374;28;20585;-74
2022/10/13 08:17:43;;;;;;;18.37;9.43;;;;;;;9.52;100.00;101258.63;5062033;28;20210;-74
2022/10/13 08:20:09;;;;;;;17.23;9.13;;;;;;;9.63;100.00;101248.06;5064516;28;20512;-73
2022/10/13 08:22:36;;;;;;;20.43;8.43;;;;;;;9.81;100.00;101253.03;5065818;22;20694;-73
2022/10/13 08:25:03;;;;;;;12.57;8.73;;;;;;;9.95;100.00;101252.84;5059898;28;20606;-73
2022/10/13 08:27:31;;;;;;;16.10;10.27;;;;;;;10.15;100.00;101249.09;5068418;28;20220;-72
2022/10/13 08:29:57;;;;;;;19.37;9.87;;;;;;;10.34;100.00;101247.13;5064598;28;20517;-73
2022/10/13 08:32:24;;;;;;;16.37;9.50;;;;;;;10.45;100.00;101245.22;5064290;28;20657;-72
2022/10/13 08:34:51;;;;;;;15.60;9.27;;;;;;;10.54;100.00;101242.47;5080555;22;20328;-71
2022/10/13 08:37:20;;;;;;;13.47;8.67;;;;;;;10.64;100.00;101245.81;5078172;28;20229;-71
2022/10/13 08:39:47;;;;;;;14.50;8.20;;;;;;;10.74;100.00;101249.94;5082448;28;20197;-70
2022/10/13 08:42:17;;;;;;;17.07;8.53;;;;;;;10.84;100.00;101250.66;5084572;28;20212;-71
2022/10/13 08:44:49;;;;;;;11.70;7.93;;;;;;;10.88;100.00;101246.25;5084823;28;20601;-70
2022/10/13 08:47:24;;;;;;;13.03;7.53;;;;;;;10.97;100.00;101246.09;5087030;28;20270;-72
2022/10/13 08:49:51;;;;;;;15.43;8.20;;;;;;;11.09;100.00;101250.22;5089569;28;20220;-72
2022/10/13 08:52:20;;;;;;;9.93;6.40;;;;;;;11.21;100.00;101244.78;5089963;28;20207;-70
2022/10/13 08:54:48;;;;;;;12.53;7.20;;;;;;;11.32;100.00;101242.81;5086621;28;20748;-71
2022/10/13 08:57:15;;;;;;;9.30;6.27;;;;;;;11.40;100.00;101242.69;5083486;28;20194;-71
2022/10/13 08:59:41;;;;;;;9.70;6.57;;;;;;;11.47;100.00;101239.06;5081883;28;20193;-70
2022/10/13 09:02:12;;;;;;;10.07;6.50;;;;;;;11.56;100.00;101238.00;5086060;28;20200;-70
2022/10/13 09:04:41;;;;;;;10.33;6.13;;;;;;;11.63;100.00;101231.78;5078554;28;20635;-69
2022/10/13 09:07:13;;;;;;;10.33;5.87;;;;;;;11.69;100.00;101231.63;5078698;28;20210;-69
2022/10/13 09:09:40;;;;;;;10.93;6.37;;;;;;;11.71;100.00;101235.09;5083717;28;20670;-71
2022/10/13 09:12:10;;;;;;;10.30;6.10;;;;;;;11.79;100.00;101229.69;5081877;28;20634;-70
2022/10/13 09:14:38;;;;;;;11.83;6.67;;;;;;;11.90;100.00;101227.72;5085960;28;20209;-70
2022/10/13 09:17:16;;;;;;;8.40;5.77;;;;;;;12.00;100.00;101236.22;5063734;28;20692;-70
2022/10/13 09:19:43;;;;;;;10.73;5.77;;;;;;;12.07;100.00;101236.97;5077760;28;20677;-69
2022/10/13 09:22:21;;;;;;;9.20;5.73;;;;;;;12.12;100.00;101235.97;5073386;28;20193;-70
2022/10/13 09:25:02;;;;;;;10.50;6.20;;;;;;;12.30;100.00;101239.03;5059720;28;20662;-70
2022/10/13 09:27:42;;;;;;;12.43;6.97;;;;;;;12.44;100.00;101236.09;5079802;28;20225;-71
2022/10/13 09:30:25;;;;;;;10.70;6.70;;;;;;;12.54;100.00;101232.38;5076740;28;20190;-70
2022/10/13 09:32:59;;;;;;;9.63;6.20;;;;;;;12.73;100.00;101237.97;5078391;28;20278;-69
2022/10/13 09:35:25;;;;;;;11.10;5.97;;;;;;;12.92;100.00;101234.91;5078100;28;20208;-71
2022/10/13 09:38:02;;;;;;;10.10;6.40;;;;;;;13.11;100.00;101232.66;5082748;28;20198;-70
2022/10/13 09:40:30;;;;;;;9.77;5.57;;;;;;;13.32;100.00;101228.63;5081566;28;20365;-70
2022/10/13 09:42:57;;;;;;;12.83;6.40;;;;;;;13.43;100.00;101227.41;5078845;28;20229;-69
2022/10/13 09:45:26;;;;;;;10.07;5.97;;;;;;;13.57;100.00;101221.78;5074478;28;20618;-72
2022/10/13 09:47:57;;;;;;;10.63;6.17;;;;;;;13.73;100.00;101216.94;5085272;28;20223;-69
2022/10/13 09:50:26;;;;;;;11.10;6.03;;;;;;;13.92;100.00;101222.47;5061350;28;20203;-70
2022/10/13 09:52:54;;;;;;;10.90;6.20;;;;;;;14.09;100.00;101215.84;5075731;28;20220;-69
2022/10/13 09:55:29;;;;;;;8.83;5.53;;;;;;;14.32;100.00;101216.00;5077902;28;20703;-69
2022/10/13 09:58:00;;;;;;;10.67;6.37;;;;;;;14.49;100.00;101218.06;5078572;28;20514;-69
2022/10/13 10:00:27;;;;;;;13.37;7.00;;;;;;;14.62;100.00;101210.69;5084253;28;20288;-70
2022/10/13 10:03:01;;;;;;;8.23;5.63;;;;;;;14.82;100.00;101210.00;5086603;28;20346;-71
2022/10/13 10:05:38;;;;;;;11.23;6.20;;;;;;;14.99;100.00;101213.81;5079273;28;20423;-69
2022/10/13 10:08:14;;;;;;;10.33;6.17;;;;;;;15.06;100.00;101213.53;5077577;28;20246;-70
2022/10/13 10:10:42;;;;;;;9.80;5.90;;;;;;;15.11;100.00;101210.75;5085745;28;20212;-69
2022/10/13 10:13:11;;;;;;;10.03;5.53;;;;;;;15.16;100.00;101206.16;5082954;28;20271;-69
2022/10/13 10:15:47;;;;;;;9.40;5.97;;;;;;;15.21;100.00;101214.75;5081578;28;20248;-69
2022/10/13 10:18:18;;;;;;;10.27;5.90;;;;;;;15.25;100.00;101210.22;5080979;28;20186;-70
2022/10/13 10:20:54;;;;;;;8.97;5.03;;;;;;;15.32;100.00;101204.72;5086106;28;20817;-69
2022/10/13 10:23:32;;;;;;;7.33;4.93;;;;;;;15.43;100.00;101204.31;5079671;28;20219;-69
2022/10/13 10:26:02;;;;;;;8.50;5.37;;;;;;;15.62;100.00;101199.22;5081820;28;20212;-70
2022/10/13 10:28:43;;;;;;;6.80;4.80;;;;;;;15.77;100.00;101202.22;5081499;28;20243;-70
2022/10/13 10:31:22;;;;;;;7.93;5.40;;;;;;;15.81;100.00;101202.03;5084850;28;20198;-71
2022/10/13 10:34:00;;;;;;;7.63;5.53;;;;;;;15.79;100.00;101201.22;5083936;28;20226;-71
2022/10/13 10:36:40;;;;;;;9.87;4.73;;;;;;;15.83;100.00;101199.31;5079320;28;20194;-71
2022/10/13 10:39:20;;;;;;;7.37;4.73;;;;;;;15.89;100.00;101196.47;5088294;28;20444;-71
2022/10/13 10:41:54;;;;;;;6.73;5.43;;;;;;;15.97;100.00;101197.03;5084660;28;20194;-70
2022/10/13 10:44:28;;;;;;;9.90;5.07;;;;;;;15.96;100.00;101192.69;5077903;28;20221;-71
2022/10/13 10:47:00;;;;;;;6.90;5.07;;;;;;;16.12;100.00;101187.66;5083841;28;20220;-72
2022/10/13 10:49:31;;;;;;;10.67;5.27;;;;;;;16.28;100.00;101195.78;5068899;28;20290;-70
2022/10/13 10:51:58;;;;;;;13.00;6.10;;;;;;;16.40;100.00;101189.16;5084419;28;20709;-70
2022/10/13 10:54:33;;;;;;;7.73;5.60;;;;;;;16.37;100.00;101199.81;5086656;28;20596;-73
2022/10/13 10:57:06;;;;;;;8.07;4.97;;;;;;;16.36;100.00;101187.56;5077958;28;20209;-70
2022/10/13 10:59:46;;;;;;;9.97;5.20;;;;;;;16.49;100.00;101180.03;5085069;28;20198;-72
2022/10/13 11:02:30;;;;;;;8.90;5.20;;;;;;;16.55;100.00;101178.00;5082790;28;20204;-69
2022/10/13 11:04:58;;;;;;;11.33;5.10;;;;;;;16.52;100.00;101182.56;5082232;28;20281;-69
2022/10/13 11:07:59;;;;;;;7.63;4.47;;;;;;;16.51;100.00;101176.41;5081448;28;20225;-71
2022/10/13 11:10:27;;;;;;;9.57;4.50;;;;;;;16.51;100.00;101163.25;5083405;28;20453;-72
2022/10/13 11:13:21;;;;;;;7.27;5.00;;;;;;;16.50;100.00;101158.94;5084185;28;20231;-72
2022/10/13 11:15:47;;;;;;;7.63;4.53;;;;;;;16.39;100.00;101159.38;5082111;28;20651;-72
2022/10/13 11:18:51;;;;;;;9.03;4.90;;;;;;;16.38;100.00;101159.44;5082270;28;20183;-71
2022/10/13 11:21:19;;;;;;;8.03;5.27;;;;;;;16.26;100.00;101145.84;5073919;28;20555;-71
2022/10/13 11:23:48;;;;;;;9.07;5.43;;;;;;;16.32;100.00;101144.75;5082420;28;20209;-69
2022/10/13 11:26:31;;;;;;;7.27;4.47;;;;;;;16.39;100.00;101142.72;5078532;28;20209;-72
2022/10/13 11:28:58;;;;;;;14.83;5.77;;;;;;;16.41;100.00;101138.22;5080582;28;20693;-73
2022/10/13 11:31:47;;;;;;;12.00;5.10;;;;;;;16.52;100.00;101129.91;5057684;28;20209;-72